createdAt,value
2018-06-11T07:27:15.794Z,44.8
2018-06-11T07:28:05.453Z,45
2018-06-11T07:28:55.170Z,45.1
2018-06-11T07:29:44.685Z,45.3
2018-06-11T07:30:35.363Z,45.4
2018-06-11T07:31:25.789Z,45.6
2018-06-11T07:32:15.478Z,45.7
2018-06-11T07:33:05.021Z,45.8
2018-06-11T07:33:55.289Z,45.9
2018-06-11T07:34:45.936Z,46.1
2018-06-11T07:35:34.578Z,46.2
2018-06-11T07:36:26.034Z,46.3
2018-06-11T07:37:16.120Z,46.4
2018-06-11T07:38:05.624Z,46.6
2018-06-11T07:38:55.943Z,46.7
2018-06-11T07:39:46.001Z,46.8
2018-06-11T07:40:35.800Z,46.9
2018-06-11T07:41:25.897Z,47.1
2018-06-11T07:42:16.181Z,47.3
2018-06-11T07:43:04.983Z,47.4
2018-06-11T07:43:56.344Z,47.5
2018-06-11T07:44:46.124Z,47.6
2018-06-11T07:45:35.425Z,47.8
2018-06-11T07:46:26.561Z,47.9
2018-06-11T07:47:16.312Z,48
2018-06-11T07:48:07.267Z,48.1
2018-06-11T07:48:55.997Z,48.3
2018-06-11T07:49:47.087Z,48.4
2018-06-11T07:50:36.846Z,48.6
2018-06-11T07:51:27.158Z,48.7
2018-06-11T07:52:16.181Z,48.8
2018-06-11T07:53:06.859Z,48.9
2018-06-11T07:53:57.137Z,49.1
2018-06-11T07:54:46.363Z,49.2
2018-06-11T07:55:36.982Z,49.3
2018-06-11T07:56:27.059Z,49.4
2018-06-11T07:57:17.436Z,49.6
2018-06-11T07:58:07.162Z,49.7
2018-06-11T07:58:57.769Z,49.8
2018-06-11T07:59:47.825Z,49.9
2018-06-11T08:00:37.649Z,50.1
2018-06-11T08:01:28.800Z,50.2
2018-06-11T08:02:17.168Z,50.3
2018-06-11T08:03:07.268Z,50.4
2018-06-11T08:03:57.728Z,50.6
2018-06-11T08:04:47.969Z,50.8
2018-06-11T08:05:37.725Z,50.8
2018-06-11T08:06:28.323Z,50.9
2018-06-11T08:07:16.823Z,51.1
2018-06-11T08:08:08.509Z,51.3
2018-06-11T08:08:58.015Z,51.4
2018-06-11T08:09:48.078Z,51.5
2018-06-11T08:10:38.390Z,51.6
2018-06-11T08:11:28.434Z,51.7
2018-06-11T08:12:18.787Z,51.8
2018-06-11T08:13:58.148Z,52.1
2018-06-11T08:14:48.476Z,52.3
2018-06-11T08:16:28.568Z,52.5
2018-06-11T08:17:19.168Z,52.6
2018-06-11T08:18:09.004Z,52.8
2018-06-11T08:18:59.348Z,52.9
2018-06-11T08:19:49.160Z,52.9
2018-06-11T08:20:39.186Z,53.1
2018-06-11T08:21:28.975Z,53.1
2018-06-11T08:22:19.302Z,53.3
2018-06-11T08:23:09.378Z,53.3
2018-06-11T08:23:59.423Z,53.4
2018-06-11T08:24:48.979Z,53.6
2018-06-11T08:25:39.826Z,53.6
2018-06-11T08:26:29.391Z,53.8
2018-06-11T08:27:19.223Z,53.9
2018-06-11T08:28:09.479Z,54
2018-06-11T08:29:00.107Z,54.1
2018-06-11T08:29:49.930Z,54.3
2018-06-11T08:30:39.930Z,54.4
2018-06-11T08:31:29.803Z,54.5
2018-06-11T08:32:19.869Z,54.6
2018-06-11T08:33:10.376Z,54.7
2018-06-11T08:33:59.921Z,54.8
2018-06-11T08:34:50.289Z,54.9
2018-06-11T08:35:40.348Z,55
2018-06-11T08:36:30.400Z,55.1
2018-06-11T08:37:20.221Z,55.2
2018-06-11T08:38:10.046Z,55.3
2018-06-11T08:39:00.037Z,55.4
2018-06-11T08:39:50.129Z,55.5
2018-06-11T08:40:40.228Z,55.6
2018-06-11T08:41:30.490Z,55.8
2018-06-11T08:42:20.126Z,55.8
2018-06-11T08:43:10.312Z,55.9
2018-06-11T08:44:00.198Z,56
2018-06-11T08:44:51.071Z,56.1
2018-06-11T08:45:41.446Z,56.2
2018-06-11T08:46:29.327Z,56.3
2018-06-11T08:47:21.076Z,56.4
2018-06-11T08:48:10.568Z,56.5
2018-06-11T08:49:01.093Z,56.6
2018-06-11T08:49:51.756Z,56.7
2018-06-11T08:50:41.054Z,56.8
2018-06-11T08:51:31.293Z,56.8
2018-06-11T08:52:21.072Z,56.9
2018-06-11T08:53:12.020Z,56.9
2018-06-11T08:54:01.304Z,57
2018-06-11T08:54:51.323Z,57.1
2018-06-11T08:55:41.897Z,57.2
2018-06-11T08:56:31.979Z,57.2
2018-06-11T08:57:22.311Z,57.3
2018-06-11T08:58:11.234Z,57.4
2018-06-11T08:59:02.144Z,57.5
2018-06-11T08:59:53.160Z,57.6
2018-06-11T09:00:41.790Z,57.6
2018-06-11T09:02:22.421Z,57.8
2018-06-11T09:03:12.364Z,57.9
2018-06-11T09:04:02.548Z,58
2018-06-11T09:04:52.399Z,58.1
2018-06-11T09:05:42.189Z,58.1
2018-06-11T09:06:33.029Z,58.2
2018-06-11T09:07:22.556Z,58.3
2018-06-11T09:08:12.872Z,58.3
2018-06-11T09:09:02.656Z,58.4
2018-06-11T09:09:52.496Z,58.4
2018-06-11T09:10:42.775Z,58.5
2018-06-11T09:13:13.554Z,58.6
2018-06-11T09:14:03.588Z,58.7
2018-06-11T09:14:53.414Z,58.8
2018-06-11T09:15:43.476Z,58.8
2018-06-11T09:16:33.783Z,58.9
2018-06-11T09:17:23.124Z,59
2018-06-11T09:18:16.212Z,59.1
2018-06-11T09:19:03.752Z,59.2
2018-06-11T09:19:53.273Z,59.3
2018-06-11T09:20:43.665Z,59.4
2018-06-11T09:21:33.669Z,59.4
2018-06-11T09:22:24.001Z,59.6
2018-06-11T09:23:14.310Z,59.6
2018-06-11T09:24:03.267Z,59.7
2018-06-11T09:24:54.151Z,59.8
2018-06-11T09:25:43.750Z,59.8
2018-06-11T09:26:34.590Z,59.9
2018-06-11T09:27:24.412Z,59.9
2018-06-11T09:28:14.427Z,60
2018-06-11T09:29:04.725Z,60
2018-06-11T09:29:54.876Z,60.1
2018-06-11T09:30:44.353Z,60.1
2018-06-11T09:31:34.695Z,60.2
2018-06-11T09:32:25.007Z,60.2
2018-06-11T09:33:14.578Z,60.3
2018-06-11T09:34:04.632Z,60.3
2018-06-11T09:34:55.259Z,60.4
2018-06-11T09:35:45.271Z,60.5
2018-06-11T09:36:35.325Z,60.6
2018-06-11T09:37:24.845Z,60.6
2018-06-11T09:38:15.539Z,60.7
2018-06-11T09:39:05.298Z,60.8
2018-06-11T09:39:55.138Z,60.8
2018-06-11T09:40:44.962Z,60.9
2018-06-11T09:41:34.645Z,60.9
2018-06-11T09:42:25.848Z,61
2018-06-11T09:43:15.033Z,61.1
2018-06-11T09:44:06.702Z,61.1
2018-06-11T09:44:55.499Z,61.2
2018-06-11T09:45:45.249Z,61.3
2018-06-11T09:46:36.131Z,61.3
2018-06-11T09:47:25.656Z,61.4
2018-06-11T09:48:15.702Z,61.4
2018-06-11T09:49:05.573Z,61.6
2018-06-11T09:49:55.637Z,61.6
2018-06-11T09:50:45.639Z,61.7
2018-06-11T09:51:35.553Z,61.8
2018-06-11T09:52:26.322Z,61.8
2018-06-11T09:53:16.391Z,61.9
2018-06-11T09:54:05.602Z,61.9
2018-06-11T09:54:56.797Z,62
2018-06-11T09:55:45.905Z,62.1
2018-06-11T09:56:36.912Z,62.1
2018-06-11T09:57:26.416Z,62.1
2018-06-11T09:58:16.789Z,62.2
2018-06-11T09:59:06.829Z,62.3
2018-06-11T09:59:56.343Z,62.3
2018-06-11T10:00:47.264Z,62.4
2018-06-11T10:01:36.609Z,62.5
2018-06-11T10:02:26.773Z,62.5
2018-06-11T10:03:16.903Z,62.6
2018-06-11T10:04:07.043Z,62.6
2018-06-11T10:04:57.543Z,62.6
2018-06-11T10:05:47.106Z,62.6
2018-06-11T10:06:37.436Z,62.8
2018-06-11T10:07:26.989Z,62.8
2018-06-11T10:08:16.713Z,62.9
2018-06-11T10:09:08.266Z,62.9
2018-06-11T10:09:57.683Z,63.1
2018-06-11T10:10:47.697Z,63.1
2018-06-11T10:11:37.265Z,63.2
2018-06-11T10:12:28.679Z,63.3
2018-06-11T10:13:18.177Z,63.3
2018-06-11T10:14:07.452Z,63.4
2018-06-11T10:14:57.759Z,63.4
2018-06-11T10:15:48.134Z,63.4
2018-06-11T10:16:38.182Z,63.4
2018-06-11T10:17:27.501Z,63.4
2018-06-11T10:18:18.043Z,63.5
2018-06-11T10:19:08.419Z,63.6
2018-06-11T10:19:58.774Z,63.6
2018-06-11T10:20:48.274Z,63.6
2018-06-11T10:21:38.594Z,63.6
2018-06-11T10:22:28.650Z,63.6
2018-06-11T10:23:18.464Z,63.6
2018-06-11T10:24:08.842Z,63.6
2018-06-11T10:24:59.845Z,63.6
2018-06-11T10:25:49.190Z,63.7
2018-06-11T10:26:38.979Z,63.7
2018-06-11T10:27:29.297Z,63.8
2018-06-11T10:28:19.369Z,63.8
2018-06-11T10:29:08.895Z,63.9
2018-06-11T10:29:59.512Z,64
2018-06-11T10:30:49.391Z,64.1
2018-06-11T10:31:39.165Z,64.1
2018-06-11T10:32:29.564Z,64.2
2018-06-11T10:33:19.749Z,64.3
2018-06-11T10:34:09.564Z,64.3
2018-06-11T10:34:59.889Z,64.4
2018-06-11T10:35:49.969Z,64.5
2018-06-11T10:36:39.212Z,64.6
2018-06-11T10:37:29.592Z,64.6
2018-06-11T10:38:19.843Z,64.8
2018-06-11T10:39:09.498Z,64.8
2018-06-11T10:39:59.452Z,64.8
2018-06-11T10:40:50.098Z,64.9
2018-06-11T10:41:39.843Z,64.9
2018-06-11T10:42:30.449Z,65
2018-06-11T10:43:19.471Z,65.1
2018-06-11T10:44:09.300Z,65.1
2018-06-11T10:44:59.842Z,65.1
2018-06-11T10:45:50.483Z,65.1
2018-06-11T10:46:40.814Z,65.1
2018-06-11T10:47:30.849Z,65.1
2018-06-11T10:48:19.845Z,65.2
2018-06-11T10:49:10.745Z,65.3
2018-06-11T10:50:00.265Z,65.3
2018-06-11T10:50:50.021Z,65.3
2018-06-11T10:51:41.163Z,65.3
2018-06-11T10:52:30.748Z,65.4
2018-06-11T10:53:20.755Z,65.4
2018-06-11T10:54:11.410Z,65.4
2018-06-11T10:55:00.455Z,65.5
2018-06-11T10:55:50.517Z,65.6
2018-06-11T10:56:40.488Z,65.6
2018-06-11T10:57:31.110Z,65.8
2018-06-11T10:58:20.963Z,65.8
2018-06-11T10:59:11.560Z,65.8
2018-06-11T11:00:01.295Z,65.8
2018-06-11T11:00:50.789Z,65.6
2018-06-11T11:01:41.707Z,64.8
2018-06-11T11:02:31.184Z,64.1
2018-06-11T11:03:21.262Z,64.1
2018-06-11T11:04:12.188Z,64.5
2018-06-11T11:05:02.230Z,65.1
2018-06-11T11:05:52.314Z,65.4
2018-06-11T11:06:41.857Z,65.6
2018-06-11T11:07:32.495Z,65.8
2018-06-11T11:08:22.478Z,65.8
2018-06-11T11:09:12.268Z,65.8
2018-06-11T11:10:02.342Z,65.9
2018-06-11T11:10:52.721Z,65.9
2018-06-11T11:11:42.427Z,66.1
2018-06-11T11:12:33.009Z,66.1
2018-06-11T11:13:22.870Z,66.1
2018-06-11T11:14:12.668Z,66.2
2018-06-11T11:15:02.741Z,66.2
2018-06-11T11:15:52.537Z,66.3
2018-06-11T11:16:42.849Z,66.3
2018-06-11T11:17:32.379Z,66.3
2018-06-11T11:18:22.701Z,66.4
2018-06-11T11:19:12.772Z,66.4
2018-06-11T11:20:02.337Z,66.5
2018-06-11T11:20:52.960Z,66.5
2018-06-11T11:21:43.513Z,66.6
2018-06-11T11:22:33.345Z,66.7
2018-06-11T11:23:23.089Z,66.7
2018-06-11T11:24:13.700Z,66.8
2018-06-11T11:25:03.559Z,66.8
2018-06-11T11:25:53.598Z,66.9
2018-06-11T11:26:43.622Z,66.9
2018-06-11T11:27:33.400Z,66.9
2018-06-11T11:28:24.076Z,66.9
2018-06-11T11:29:13.005Z,66.9
2018-06-11T11:30:03.911Z,66.9
2018-06-11T11:30:53.950Z,66.9
2018-06-11T11:31:44.331Z,66.9
2018-06-11T11:32:33.798Z,66.9
2018-06-11T11:33:24.402Z,66.9
2018-06-11T11:34:13.665Z,66.9
2018-06-11T11:35:04.595Z,66.9
2018-06-11T11:35:53.810Z,66.9
2018-06-11T11:36:44.682Z,67
2018-06-11T11:37:34.773Z,67
2018-06-11T11:38:24.323Z,67
2018-06-11T11:39:14.605Z,67.1
2018-06-11T11:40:04.719Z,67.1
2018-06-11T11:40:55.001Z,67.1
2018-06-11T11:41:45.058Z,67.1
2018-06-11T11:42:35.123Z,67.1
2018-06-11T11:43:24.090Z,67.1
2018-06-11T11:44:14.753Z,67.2
2018-06-11T11:45:04.517Z,67.2
2018-06-11T11:45:55.167Z,67.3
2018-06-11T11:46:44.880Z,67.3
2018-06-11T11:47:34.998Z,67.3
2018-06-11T11:48:25.086Z,67.3
2018-06-11T11:49:15.653Z,67.3
2018-06-11T11:50:05.731Z,67.4
2018-06-11T11:50:54.971Z,67.4
2018-06-11T11:51:45.585Z,67.4
2018-06-11T11:52:35.646Z,67.4
2018-06-11T11:53:25.992Z,67.4
2018-06-11T11:54:15.518Z,67.4
2018-06-11T11:55:05.343Z,67.4
2018-06-11T11:55:56.207Z,67.4
2018-06-11T11:56:45.434Z,67.4
2018-06-11T11:57:36.565Z,67.4
2018-06-11T11:58:26.417Z,67.4
2018-06-11T11:59:16.497Z,67.4
2018-06-11T12:00:06.255Z,67.4
2018-06-11T12:00:56.003Z,67.5
2018-06-11T12:01:47.317Z,67.5
2018-06-11T12:02:36.480Z,67.6
2018-06-11T12:03:26.807Z,67.6
2018-06-11T12:04:16.069Z,67.6
2018-06-11T12:05:06.619Z,67.7
2018-06-11T12:05:56.426Z,67.8
2018-06-11T12:06:47.048Z,67.8
2018-06-11T12:07:36.992Z,67.8
2018-06-11T12:08:26.950Z,67.8
2018-06-11T12:09:16.677Z,67.8
2018-06-11T12:10:06.803Z,67.8
2018-06-11T12:10:56.846Z,67.1
2018-06-11T12:11:47.266Z,66.2
2018-06-11T12:12:36.940Z,65.4
2018-06-11T12:13:27.023Z,65.4
2018-06-11T12:14:17.067Z,65.9
2018-06-11T12:15:07.444Z,66.4
2018-06-11T12:15:57.483Z,66.8
2018-06-11T12:16:47.260Z,66.9
2018-06-11T12:17:37.615Z,66.8
2018-06-11T12:18:28.002Z,66.8
2018-06-11T12:19:18.023Z,66.8
2018-06-11T12:20:07.760Z,66.8
2018-06-11T12:20:57.866Z,66.9
2018-06-11T12:21:47.917Z,67
2018-06-11T12:22:38.264Z,67
2018-06-11T12:23:28.314Z,67
2018-06-11T12:24:17.856Z,67
2018-06-11T12:25:09.175Z,67.1
2018-06-11T12:25:57.717Z,67.1
2018-06-11T12:26:47.792Z,67.1
2018-06-11T12:27:38.662Z,67.1
2018-06-11T12:28:28.699Z,67.1
2018-06-11T12:29:17.969Z,67.1
2018-06-11T12:30:08.575Z,67.1
2018-06-11T12:30:58.633Z,67.1
2018-06-11T12:31:47.861Z,67.1
2018-06-11T12:32:38.794Z,67.1
2018-06-11T12:33:28.829Z,67.1
2018-06-11T12:34:18.877Z,67.1
2018-06-11T12:35:08.966Z,67.1
2018-06-11T12:35:58.723Z,67.1
2018-06-11T12:36:48.521Z,67.1
2018-06-11T12:37:38.899Z,67.1
2018-06-11T12:38:29.589Z,67.1
2018-06-11T12:39:18.727Z,67
2018-06-11T12:40:08.826Z,67
2018-06-11T12:40:59.691Z,67.1
2018-06-11T12:41:49.501Z,67.1
2018-06-11T12:42:39.299Z,67.1
2018-06-11T12:43:29.342Z,67.1
2018-06-11T12:44:18.842Z,67.1
2018-06-11T12:45:09.247Z,67.1
2018-06-11T12:45:59.535Z,67.1
2018-06-11T12:46:50.187Z,67
2018-06-11T12:47:40.485Z,67
2018-06-11T12:48:29.706Z,66.9
2018-06-11T12:49:20.410Z,66.9
2018-06-11T12:50:09.043Z,66.9
2018-06-11T12:50:59.625Z,66.9
2018-06-11T12:51:50.244Z,66.8
2018-06-11T12:52:40.469Z,66.8
2018-06-11T12:53:30.670Z,66.8
2018-06-11T12:54:19.966Z,66.7
2018-06-11T12:55:10.270Z,66.7
2018-06-11T12:56:00.842Z,66.7
2018-06-11T12:56:50.654Z,66.6
2018-06-11T12:57:40.740Z,66.7
2018-06-11T12:58:29.948Z,66.6
2018-06-11T12:59:20.849Z,66.6
2018-06-11T13:00:10.931Z,66.6
2018-06-11T13:01:01.026Z,66.6
2018-06-11T13:01:51.428Z,66.6
2018-06-11T13:02:41.460Z,66.6
2018-06-11T13:03:31.167Z,66.6
2018-06-11T13:04:20.726Z,66.6
2018-06-11T13:05:11.640Z,66.6
2018-06-11T13:06:01.115Z,66.6
2018-06-11T13:06:51.450Z,66.5
2018-06-11T13:07:41.488Z,66.5
2018-06-11T13:08:31.857Z,66.4
2018-06-11T13:09:21.892Z,66.4
2018-06-11T13:10:11.789Z,66.4
2018-06-11T13:11:02.085Z,66.3
2018-06-11T13:11:51.038Z,66.3
2018-06-11T13:12:41.640Z,66.3
2018-06-11T13:13:32.008Z,66.3
2018-06-11T13:14:21.506Z,66.3
2018-06-11T13:15:12.145Z,66.2
2018-06-11T13:16:01.622Z,66.2
2018-06-11T13:16:52.512Z,66.1
2018-06-11T13:17:41.967Z,66.1
2018-06-11T13:18:31.515Z,66.1
2018-06-11T13:19:21.645Z,66.1
2018-06-11T13:20:12.321Z,66
2018-06-11T13:21:02.553Z,66
2018-06-11T13:21:52.922Z,65.9
2018-06-11T13:22:42.704Z,65.9
2018-06-11T13:23:32.537Z,65.9
2018-06-11T13:24:22.047Z,65.8
2018-06-11T13:25:12.045Z,65.8
2018-06-11T13:26:02.683Z,65.7
2018-06-11T13:26:52.460Z,65.5
2018-06-11T13:27:43.072Z,65.4
2018-06-11T13:28:32.568Z,65.4
2018-06-11T13:29:23.486Z,65.3
2018-06-11T13:30:13.283Z,65.1
2018-06-11T13:31:02.526Z,64.9
2018-06-11T13:31:53.119Z,64.6
2018-06-11T13:32:43.203Z,64.4
2018-06-11T13:33:33.523Z,64.4
2018-06-11T13:34:23.307Z,64.3
2018-06-11T13:35:13.932Z,64.1
2018-06-11T13:36:03.758Z,64
2018-06-11T13:36:52.988Z,63.9
2018-06-11T13:37:42.746Z,63.8
2018-06-11T13:38:33.919Z,63.6
2018-06-11T13:39:24.020Z,63.5
2018-06-11T13:40:14.360Z,63.3
2018-06-11T13:41:03.846Z,63.2
2018-06-11T13:41:54.201Z,63.1
2018-06-11T13:42:44.295Z,62.9
2018-06-11T13:43:34.075Z,62.8
2018-06-11T13:44:24.392Z,62.6
2018-06-11T13:45:14.493Z,62.5
2018-06-11T13:46:04.245Z,62.4
2018-06-11T13:46:53.757Z,62.3
2018-06-11T13:47:44.680Z,62.2
2018-06-11T13:48:34.721Z,62.1
2018-06-11T13:49:23.959Z,61.9
2018-06-11T13:50:15.386Z,61.8
2018-06-11T13:51:05.177Z,61.7
2018-06-11T13:51:54.383Z,61.6
2018-06-11T13:52:45.297Z,61.4
2018-06-11T13:53:35.181Z,61.3
2018-06-11T13:54:25.127Z,61.1
2018-06-11T13:55:15.533Z,61
2018-06-11T13:56:05.284Z,60.9
2018-06-11T13:56:55.281Z,60.7
2018-06-11T13:57:45.393Z,60.6
2018-06-11T13:58:35.767Z,60.4
2018-06-11T13:59:25.259Z,60.3
2018-06-11T14:00:15.661Z,59.9
2018-06-11T14:01:05.399Z,59.3
2018-06-11T14:01:56.013Z,58.8
2018-06-11T14:02:46.059Z,58.2
2018-06-11T14:03:35.598Z,57.7
2018-06-11T14:04:25.644Z,57.3
2018-06-11T14:05:15.849Z,56.9
2018-06-11T14:06:05.585Z,56.6
2018-06-11T14:06:56.120Z,56.2
2018-06-11T14:07:46.574Z,55.9
2018-06-11T14:08:35.982Z,55.6
2018-06-11T14:09:26.589Z,55.3
2018-06-11T14:10:16.748Z,55.1
2018-06-11T14:11:06.489Z,54.8
2018-06-11T14:11:55.713Z,54.6
2018-06-11T14:12:45.925Z,54.4
2018-06-11T14:13:36.417Z,54.2
2018-06-11T14:14:26.709Z,53.9
2018-06-11T14:15:16.518Z,53.8
2018-06-11T14:16:06.047Z,53.6
2018-06-11T14:16:56.934Z,53.4
2018-06-11T14:17:46.149Z,53.3
2018-06-11T14:18:36.500Z,53.1
2018-06-11T14:19:26.758Z,52.9
2018-06-11T14:20:17.224Z,52.8
2018-06-11T14:21:07.298Z,52.6
2018-06-11T14:21:57.556Z,52.6
2018-06-11T14:23:37.403Z,52.3
2018-06-11T14:24:27.220Z,52.2
2018-06-11T14:25:17.009Z,52.1
2018-06-11T14:26:07.365Z,52
2018-06-11T14:26:57.702Z,51.8
2018-06-11T14:27:47.746Z,51.8
2018-06-11T14:28:38.159Z,51.7
2018-06-11T14:29:27.623Z,51.6
2018-06-11T14:30:17.412Z,51.5
2018-06-11T14:31:07.558Z,51.4
2018-06-11T14:31:57.561Z,51.3
2018-06-11T14:32:47.062Z,51.3
2018-06-11T14:33:38.577Z,51.2
2018-06-11T14:34:28.591Z,51.1
2018-06-11T14:35:17.067Z,51.1
2018-06-11T14:36:08.685Z,51
2018-06-11T14:36:58.210Z,50.9
2018-06-11T14:37:48.818Z,50.9
2018-06-11T14:38:38.303Z,50.8
2018-06-11T14:39:28.493Z,50.8
2018-06-11T14:40:19.041Z,50.7
2018-06-11T14:41:08.686Z,50.6
2018-06-11T14:41:59.140Z,50.6
2018-06-11T14:42:49.010Z,50.5
2018-06-11T14:43:39.297Z,50.4
2018-06-11T14:44:28.873Z,50.4
2018-06-11T14:45:18.840Z,50.4
2018-06-11T14:46:08.672Z,50.3
2018-06-11T14:46:59.537Z,50.3
2018-06-11T14:47:48.518Z,50.3
2018-06-11T14:48:39.683Z,50.3
2018-06-11T14:49:29.799Z,50.2
2018-06-11T14:50:19.015Z,50.1
2018-06-11T14:51:09.052Z,50.1
2018-06-11T14:51:59.133Z,50.1
2018-06-11T14:52:49.161Z,50
2018-06-11T14:53:39.513Z,50
2018-06-11T14:54:29.909Z,49.9
2018-06-11T14:55:20.195Z,49.9
2018-06-11T14:56:09.729Z,49.9
2018-06-11T14:56:59.713Z,49.9
2018-06-11T14:57:50.368Z,49.8
2018-06-11T14:58:40.479Z,49.8
2018-06-11T14:59:30.488Z,49.8
2018-06-11T15:00:20.574Z,49.8
2018-06-11T15:01:10.636Z,49.7
2018-06-11T15:02:00.202Z,49.7
2018-06-11T15:02:50.511Z,49.7
2018-06-11T15:03:40.431Z,49.6
2018-06-11T15:04:29.896Z,49.6
2018-06-11T15:05:20.686Z,49.6
2018-06-11T15:06:10.471Z,49.6
2018-06-11T15:07:00.546Z,49.6
2018-06-11T15:07:50.684Z,49.5
2018-06-11T15:08:41.177Z,49.5
2018-06-11T15:09:31.712Z,49.4
2018-06-11T15:10:21.063Z,49.4
2018-06-11T15:11:11.470Z,49.4
2018-06-11T15:12:01.481Z,49.4
2018-06-11T15:12:51.254Z,49.4
2018-06-11T15:13:41.302Z,49.4
2018-06-11T15:14:31.716Z,49.3
2018-06-11T15:15:21.515Z,49.3
2018-06-11T15:16:11.802Z,49.3
2018-06-11T15:17:01.597Z,49.3
2018-06-11T15:17:51.942Z,49.3
2018-06-11T15:18:41.724Z,49.3
2018-06-11T15:19:32.077Z,49.3
2018-06-11T15:20:21.858Z,49.2
2018-06-11T15:21:12.191Z,49.2
2018-06-11T15:22:02.241Z,49.2
2018-06-11T15:22:52.052Z,49.2
2018-06-11T15:23:42.437Z,49.1
2018-06-11T15:24:32.262Z,49.1
2018-06-11T15:25:22.257Z,49.1
2018-06-11T15:26:12.625Z,49.1
2018-06-11T15:27:02.141Z,49.1
2018-06-11T15:27:52.734Z,49.1
2018-06-11T15:28:41.989Z,49
2018-06-11T15:29:33.236Z,49
2018-06-11T15:30:22.649Z,48.9
2018-06-11T15:31:12.988Z,48.9
2018-06-11T15:32:03.034Z,48.9
2018-06-11T15:32:51.996Z,48.9
2018-06-11T15:33:43.154Z,48.9
2018-06-11T15:34:32.406Z,48.8
2018-06-11T15:35:23.037Z,48.8
2018-06-11T15:36:13.349Z,48.8
2018-06-11T15:37:02.615Z,48.8
2018-06-11T15:37:53.505Z,48.8
2018-06-11T15:38:43.321Z,48.8
2018-06-11T15:39:33.381Z,48.7
2018-06-11T15:40:23.701Z,48.7
2018-06-11T15:41:13.225Z,48.6
2018-06-11T15:42:03.073Z,48.6
2018-06-11T15:42:53.903Z,48.6
2018-06-11T15:43:43.122Z,48.6
2018-06-11T15:44:32.638Z,48.6
2018-06-11T15:45:23.843Z,48.5
2018-06-11T15:46:13.595Z,48.5
2018-06-11T15:47:03.645Z,48.4
2018-06-11T15:47:54.033Z,48.4
2018-06-11T15:48:43.805Z,48.4
2018-06-11T15:49:33.878Z,48.4
2018-06-11T15:50:24.246Z,48.4
2018-06-11T15:51:14.280Z,48.3
2018-06-11T15:52:04.579Z,48.3
2018-06-11T15:52:54.399Z,48.3
2018-06-11T15:53:43.609Z,48.3
2018-06-11T15:54:34.276Z,48.2
2018-06-11T15:55:24.882Z,48.2
2018-06-11T15:56:14.075Z,48.1
2018-06-11T15:57:04.439Z,48.1
2018-06-11T15:57:55.132Z,48.1
2018-06-11T15:58:44.872Z,48.1
2018-06-11T15:59:33.788Z,48.1
2018-06-11T16:00:24.719Z,48.1
2018-06-11T16:01:14.748Z,48
2018-06-11T16:02:04.830Z,48
2018-06-11T16:02:55.159Z,47.9
2018-06-11T16:03:45.228Z,47.9
2018-06-11T16:04:35.284Z,47.9
2018-06-11T16:05:26.059Z,47.8
2018-06-11T16:06:15.452Z,47.8
2018-06-11T16:07:05.237Z,47.8
2018-06-11T16:07:55.829Z,47.8
2018-06-11T16:08:45.709Z,47.8
2018-06-11T16:09:35.457Z,47.8
2018-06-11T16:10:24.931Z,47.7
2018-06-11T16:11:15.831Z,47.7
2018-06-11T16:12:06.263Z,47.7
2018-06-11T16:12:55.977Z,47.6
2018-06-11T16:13:46.317Z,47.6
2018-06-11T16:14:35.663Z,47.6
2018-06-11T16:15:26.408Z,47.6
2018-06-11T16:16:15.918Z,47.6
2018-06-11T16:17:06.566Z,47.6
2018-06-11T16:17:56.328Z,47.5
2018-06-11T16:18:46.406Z,47.4
2018-06-11T16:19:36.169Z,47.4
2018-06-11T16:20:26.554Z,47.3
2018-06-11T16:21:16.866Z,47.3
2018-06-11T16:22:06.972Z,47.3
2018-06-11T16:22:57.018Z,47.3
2018-06-11T16:23:47.080Z,47.3
2018-06-11T16:24:36.391Z,47.2
2018-06-11T16:25:27.013Z,47.2
2018-06-11T16:26:16.473Z,47.2
2018-06-11T16:27:07.095Z,47.2
2018-06-11T16:27:57.232Z,47.2
2018-06-11T16:28:46.902Z,47.1
2018-06-11T16:29:36.961Z,47.1
2018-06-11T16:30:27.044Z,47.1
2018-06-11T16:31:17.399Z,47.1
2018-06-11T16:32:07.781Z,47.1
2018-06-11T16:32:57.229Z,47.1
2018-06-11T16:33:47.595Z,47.1
2018-06-11T16:34:37.736Z,47.1
2018-06-11T16:35:27.463Z,47.1
2018-06-11T16:36:17.826Z,47.1
2018-06-11T16:37:09.020Z,47
2018-06-11T16:37:57.625Z,47
2018-06-11T16:38:47.700Z,47
2018-06-11T16:39:38.333Z,47
2018-06-11T16:40:28.101Z,47
2018-06-11T16:41:17.331Z,47
2018-06-11T16:42:08.587Z,46.9
2018-06-11T16:42:59.352Z,46.9
2018-06-11T16:43:48.111Z,46.9
2018-06-11T16:44:38.176Z,46.9
2018-06-11T16:45:27.658Z,46.9
2018-06-11T16:46:18.545Z,46.9
2018-06-11T16:47:08.193Z,46.9
2018-06-11T16:47:59.002Z,46.9
2018-06-11T16:48:49.307Z,46.8
2018-06-11T16:49:39.185Z,46.8
2018-06-11T16:50:28.119Z,46.8
2018-06-11T16:51:19.020Z,46.8
2018-06-11T16:52:08.736Z,46.8
2018-06-11T16:52:59.108Z,46.8
2018-06-11T16:53:49.408Z,46.8
2018-06-11T16:54:39.552Z,46.8
2018-06-11T16:55:29.319Z,46.8
2018-06-11T16:56:18.255Z,46.8
2018-06-11T16:57:09.105Z,46.8
2018-06-11T16:57:58.749Z,46.8
2018-06-11T16:58:49.027Z,46.7
2018-06-11T16:59:39.935Z,46.7
2018-06-11T17:00:29.392Z,46.7
2018-06-11T17:01:19.509Z,46.6
2018-06-11T17:02:07.924Z,46.6
2018-06-11T17:02:59.671Z,46.6
2018-06-11T17:03:48.819Z,46.6
2018-06-11T17:04:38.617Z,46.6
2018-06-11T17:05:28.944Z,46.6
2018-06-11T17:06:19.378Z,46.6
2018-06-11T17:07:09.208Z,46.6
2018-06-11T17:07:58.384Z,46.6
2018-06-11T17:08:48.813Z,46.6
2018-06-11T17:09:39.957Z,46.6
2018-06-11T17:10:29.167Z,46.6
2018-06-11T17:11:20.013Z,46.6
2018-06-11T17:12:08.825Z,46.5
2018-06-11T17:12:59.354Z,46.5
2018-06-11T17:13:49.393Z,46.5
2018-06-11T17:14:40.272Z,46.5
2018-06-11T17:15:30.159Z,46.5
2018-06-11T17:16:19.770Z,46.5
2018-06-11T17:17:11.005Z,46.4
2018-06-11T17:18:01.015Z,46.4
2018-06-11T17:18:51.383Z,46.4
2018-06-11T17:19:41.445Z,46.4
2018-06-11T17:20:31.225Z,46.4
2018-06-11T17:21:21.552Z,46.4
2018-06-11T17:22:11.625Z,46.4
2018-06-11T17:23:01.718Z,46.3
2018-06-11T17:23:51.220Z,46.3
2018-06-11T17:24:41.275Z,46.3
2018-06-11T17:25:32.044Z,46.2
2018-06-11T17:26:21.363Z,46.2
2018-06-11T17:27:11.162Z,46.2
2018-06-11T17:28:01.769Z,46.2
2018-06-11T17:28:52.129Z,46.2
2018-06-11T17:29:41.621Z,46.2
2018-06-11T17:30:32.261Z,46.2
2018-06-11T17:31:21.757Z,46.2
2018-06-11T17:32:12.399Z,46.1
2018-06-11T17:33:02.481Z,46.1
2018-06-11T17:33:51.966Z,46
2018-06-11T17:34:43.105Z,46
2018-06-11T17:35:32.682Z,46
2018-06-11T17:36:22.755Z,46
2018-06-11T17:37:12.834Z,45.9
2018-06-11T17:38:02.335Z,45.9
2018-06-11T17:38:52.384Z,45.8
2018-06-11T17:39:42.139Z,45.8
2018-06-11T17:40:32.557Z,45.8
2018-06-11T17:41:22.824Z,45.8
2018-06-11T17:42:12.609Z,45.8
2018-06-11T17:43:02.812Z,45.8
2018-06-11T17:43:53.321Z,45.8
2018-06-11T17:44:43.962Z,45.8
2018-06-11T17:45:32.363Z,45.8
2018-06-11T17:46:23.025Z,45.7
2018-06-11T17:47:12.781Z,45.8
2018-06-11T17:48:03.089Z,45.7
2018-06-11T17:48:53.131Z,45.7
2018-06-11T17:49:43.814Z,45.7
2018-06-11T17:50:33.548Z,45.7
2018-06-11T17:51:24.224Z,45.7
2018-06-11T17:52:14.113Z,45.7
2018-06-11T17:53:02.652Z,45.7
2018-06-11T17:53:53.823Z,45.7
2018-06-11T17:54:44.718Z,45.7
2018-06-11T17:55:33.641Z,45.7
2018-06-11T17:56:24.005Z,45.7
2018-06-11T17:57:13.900Z,45.6
2018-06-11T17:58:04.156Z,45.6
2018-06-11T17:58:54.298Z,45.6
2018-06-11T17:59:43.993Z,45.7
2018-06-11T18:00:35.637Z,45.6
2018-06-11T18:01:23.850Z,45.6
2018-06-11T18:02:14.510Z,45.6
2018-06-11T18:03:04.321Z,45.6
2018-06-11T18:03:54.333Z,45.5
2018-06-11T18:04:45.271Z,45.6
2018-06-11T18:05:35.401Z,45.5
2018-06-11T18:06:24.538Z,45.5
2018-06-11T18:07:14.307Z,45.5
2018-06-11T18:08:05.162Z,45.5
2018-06-11T18:08:54.991Z,45.4
2018-06-11T18:09:45.424Z,45.5
2018-06-11T18:10:34.582Z,45.4
2018-06-11T18:11:25.475Z,45.5
2018-06-11T18:12:15.212Z,45.4
2018-06-11T18:13:04.770Z,45.5
2018-06-11T18:13:54.517Z,45.4
2018-06-11T18:14:45.422Z,45.4
2018-06-11T18:15:35.781Z,45.4
2018-06-11T18:16:25.857Z,45.4
2018-06-11T18:17:15.657Z,45.4
2018-06-11T18:18:05.422Z,45.4
2018-06-11T18:18:54.324Z,45.4
2018-06-11T18:19:45.817Z,45.4
2018-06-11T18:20:35.602Z,45.4
2018-06-11T18:21:26.047Z,45.4
2018-06-11T18:22:15.764Z,45.4
2018-06-11T18:23:05.805Z,45.3
2018-06-11T18:23:55.636Z,45.3
2018-06-11T18:24:46.519Z,45.3
2018-06-11T18:25:35.770Z,45.3
2018-06-11T18:26:26.603Z,45.3
2018-06-11T18:27:16.710Z,45.3
2018-06-11T18:28:06.192Z,45.3
2018-06-11T18:28:56.259Z,45.3
2018-06-11T18:29:45.488Z,45.3
2018-06-11T18:30:35.812Z,45.3
2018-06-11T18:31:26.729Z,45.3
2018-06-11T18:32:16.864Z,45.3
2018-06-11T18:33:05.738Z,45.2
2018-06-11T18:33:57.001Z,45.2
2018-06-11T18:34:46.976Z,45.2
2018-06-11T18:35:37.133Z,45.2
2018-06-11T18:36:27.435Z,45.1
2018-06-11T18:37:16.063Z,45.1
2018-06-11T18:38:07.293Z,45.1
2018-06-11T18:38:57.104Z,45.1
2018-06-11T18:39:47.077Z,45.1
2018-06-11T18:40:37.735Z,45.1